Nearby METAR Reports

 

KIAG - Niagara Falls, New York, USA
Distance from station: W 12mi, 20km
Updated: 11/24/2017 10:53am
Clear
Clear
 Wind from SSW
Wind: SSW 21 mph , 33 km/h
Temperature: 46°F , 8°C
Wind Chill: 38°F , 3°C
Dew Point: 30°F , -1°C
Humidity: 53%
Barometer: 1010.8 hPa
Clouds: Clear
Visibility: 10 miles , 16 km
2017/11/24 15:53 KIAG 241553Z 21018KT 10SM CLR 08/M01 A2985 RMK AO2 PK WND 21030/1540 SLP115 T00831011
KBUF - Buffalo/Cheektow, New York, USA
Distance from station: S 13mi, 21km
Updated: 11/24/2017 10:54am
Few Clouds
Few Clouds
 Wind from SW
Wind: SW 21 mph , 33 km/h, Gust: 29 mph , 46 km/h
Temperature: 45°F , 7°C
Wind Chill: 37°F , 3°C
Dew Point: 25°F , -4°C
Humidity: 46%
Barometer: 1010.8 hPa
Clouds: Few Clouds
Visibility: 10 miles , 16 km
Cloud details: Few Clouds 25000 ft
2017/11/24 15:54 KBUF 241554Z 22018G25KT 10SM FEW250 07/M04 A2985 RMK AO2 SLP114 T00721039 $
 
KROC - Rochester, New York, USA
Distance from station: E 51mi, 82km
Updated: 11/24/2017 10:54am
Partly cloudy
Partly cloudy
 Wind from SSW
Wind: SSW 12 mph , 19 km/h
Temperature: 43°F , 6°C
Wind Chill: 37°F , 3°C
Dew Point: 27°F , -3°C
Humidity: 53%
Barometer: 1011.5 hPa
Clouds: Partly cloudy
Visibility: 10 miles , 16 km
Cloud details: Few Clouds 15000 ft
Partly cloudy 25000 ft
2017/11/24 15:54 KROC 241554Z 21010KT 10SM FEW150 SCT250 06/M03 A2987 RMK AO2 SLP124 T00611033
CYSN - St. Catharines A, Ontario, Canada
Distance from station: WNW 25mi, 40km
Updated: 11/24/2017 11:00am
Partly cloudy
Partly cloudy
 Wind from SW
Wind: SW 24 mph , 39 km/h, Gust: 33 mph , 54 km/h
Temperature: 48°F , 9°C
Wind Chill: 40°F , 4°C
Dew Point: 28°F , -2°C
Humidity: 46%
Barometer: 1010.2 hPa
Clouds: Partly cloudy
Visibility: 15 miles , 24 km
Cloud details: Partly cloudy 25000 ft
2017/11/24 16:00 CYSN 241600Z 22021G29KT 15SM SCT250 09/M02 A2983 RMK CI3 SLP106
 
KOLE - Olean, New York, USA
Distance from station: SSE 63mi, 102km
Updated: 11/24/2017 11:15am
Clear
Clear
 Wind from SW
Wind: SW 10 mph , 17 km/h, Gust: 17 mph , 28 km/h
Temperature: 37°F , 3°C
Wind Chill: 30°F , -1°C
Dew Point: 21°F , -6°C
Humidity: 52%
Barometer: 1011.5 hPa
Clouds: Clear
Visibility: 10 miles , 16 km
2017/11/24 16:15 KOLE 241615Z AUTO 23009G15KT 200V260 10SM CLR 03/M06 A2987 RMK AO2
KJHW - Jamestown, New York, USA
Distance from station: SSW 74mi, 119km
Updated: 11/24/2017 10:56am
Clear
Clear
 Wind from S
Wind: S 16 mph , 26 km/h, Gust: 25 mph , 41 km/h
Temperature: 39°F , 4°C
Wind Chill: 30°F , -1°C
Dew Point: 23°F , -5°C
Humidity: 52%
Barometer: 1012.2 hPa
Clouds: Clear
Visibility: 10 miles , 16 km
2017/11/24 15:56 KJHW 241556Z AUTO 19014G22KT 10SM CLR 04/M05 A2989 RMK AO2 SLP139 P0001 T00391050
 
CWWZ - Port Weller (mar, Ontario, Canada
Distance from station: WNW 28mi, 45km
Updated: 11/24/2017 11:00am

 Wind from SSW
Wind: SSW 13 mph , 20 km/h, Gust: 23 mph , 37 km/h
Temperature: 48°F , 9°C
Wind Chill: 43°F , 6°C
Dew Point: 32°F , 0°C
Humidity: 54%
2017/11/24 16:00 CWWZ 241600Z AUTO 21011G20KT 09/M00 RMK AO1 PK WND 24020/1551 SLP104 T00881001 58014
CWPC - Port Colborne(Au, Ontario, Canada
Distance from station: WSW 33mi, 53km
Updated: 11/24/2017 11:00am

 Wind from SW
Wind: SW 29 mph , 46 km/h
Temperature: 45°F , 7°C
Wind Chill: 35°F , 2°C
Dew Point: 34°F , 1°C
Humidity: 66%
2017/11/24 16:00 CWPC 241600Z AUTO 23025KT 07/01 RMK AO1 PK WND 23030/1532 SLP114 T00650005 58010
 
CXVN - Vineland (au8), Ontario, Canada
Distance from station: W 36mi, 58km
Updated: 11/24/2017 11:00am

 Wind from SSW
Wind: SSW 17 mph , 28 km/h, Gust: 26 mph , 43 km/h
Temperature: 48°F , 9°C
Wind Chill: 42°F , 6°C
Dew Point: 30°F , -1°C
Humidity: 50%
2017/11/24 16:00 CXVN 241600Z AUTO 21015G23KT 09/M01 RMK AO1 SOG 00 7014 PK WND 23025/1544 SLP097 T00871010
CYTZ - Toronto Il Vor, Ontario, Canada
Distance from station: NW 50mi, 81km
Updated: 11/24/2017 11:00am
Clear
Clear
 Wind from SSW
Wind: SSW 21 mph , 33 km/h
Temperature: 45°F , 7°C
Wind Chill: 37°F , 3°C
Dew Point: 37°F , 3°C
Humidity: 76%
Barometer: 1009.5 hPa
Clouds: Clear
Visibility: 9 miles , 14 km
2017/11/24 16:00 CYTZ 241600Z AUTO 21018KT 9SM CLR 07/03 A2981 RMK SLP100
 
CXTO - Toronto City, Ontario, Canada
Distance from station: NW 52mi, 84km
Updated: 11/24/2017 11:00am

 
Temperature: 45°F , 7°C
Dew Point: 34°F , 1°C
Humidity: 66%
2017/11/24 16:00 CXTO 241600Z AUTO 07/01 RMK AO1 SLP098 T00710014 57013
KDKK - Dunkirk, New York, USA
Distance from station: SW 52mi, 84km
Updated: 11/24/2017 10:53am
Clear
Clear
 Wind from SSW
Wind: SSW 18 mph , 30 km/h, Gust: 26 mph , 43 km/h
Temperature: 46°F , 8°C
Wind Chill: 39°F , 4°C
Dew Point: 25°F , -4°C
Humidity: 43%
Barometer: 1011.9 hPa
Clouds: Clear
Visibility: 10 miles , 16 km
2017/11/24 15:53 KDKK 241553Z AUTO 21016G23KT 10SM CLR 08/M04 A2988 RMK AO2 SLP122 T00781039
 
CYOO - Oshawa, Ontario, Canada
Distance from station: N 56mi, 90km
Updated: 11/24/2017 11:18am
Mostly cloudy
Mostly cloudy
 Wind from SSW
Wind: SSW 13 mph , 20 km/h, Gust: 30 mph , 48 km/h
Temperature: 45°F , 7°C
Wind Chill: 39°F , 4°C
Dew Point: 36°F , 2°C
Humidity: 71%
Barometer: 1009.1 hPa
Clouds: Mostly cloudy
Visibility: 9 miles , 14 km
Cloud details: Mostly cloudy 2000 ft
2017/11/24 16:18 CYOO 241618Z AUTO 21011G26KT 9SM BKN020 07/02 A2980 RMK SLP097
CWWB - Burlington Piers, Ontario, Canada
Distance from station: WNW 56mi, 91km
Updated: 11/24/2017 11:00am

 
Temperature: 46°F , 8°C
Dew Point: 32°F , 0°C
Humidity: 57%
2017/11/24 16:00 CWWB 241600Z AUTO 08/M00 RMK AO1 24 8015 SLP100 T00761002
 
CYYZ - Toronto/Pearson, Ontario, Canada
Distance from station: NW 60mi, 96km
Updated: 11/24/2017 11:00am
Partly cloudy
Partly cloudy
 Wind from SSW
Wind: SSW 18 mph , 30 km/h, Gust: 33 mph , 54 km/h
Temperature: 46°F , 8°C
Wind Chill: 39°F , 4°C
Dew Point: 34°F , 1°C
Humidity: 62%
Barometer: 1009.1 hPa
Clouds: Partly cloudy
Visibility: 15 miles , 24 km
Cloud details: Few Clouds 3000 ft
Few Clouds 10000 ft
Partly cloudy 26000 ft
2017/11/24 16:00 CYYZ 241600Z 21016G29KT 15SM FEW030 FEW100 SCT260 08/01 A2980 RMK CF1AC1CI2 CF TR SLP097
CYKZ - Toronto Buttonvi, Ontario, Canada
Distance from station: NW 62mi, 99km
Updated: 11/24/2017 11:00am
Few Clouds
Few Clouds
 Wind from SSW
Wind: SSW 16 mph , 26 km/h, Gust: 23 mph , 37 km/h
Temperature: 45°F , 7°C
Wind Chill: 38°F , 3°C
Dew Point: 32°F , 0°C
Humidity: 61%
Barometer: 1008.8 hPa
Clouds: Few Clouds
Visibility: 15 miles , 24 km
Cloud details: Few Clouds 2500 ft
Few Clouds 8000 ft
Few Clouds 17000 ft
Few Clouds 26000 ft
2017/11/24 16:00 CYKZ 241600Z 21014G20KT 15SM FEW025 FEW080 FEW170 FEW260 07/00 A2979 RMK CU1AC1AC1CI1 CU TR AC TR AC TR SLP095
 
CXHM - Hamilton Rbg Cs, Ontario, Canada
Distance from station: W 62mi, 100km
Updated: 10/30/2017 11:00am
NOT Current

 Wind from WSW
Wind: WSW 8 mph , 13 km/h, Gust: 21 mph , 33 km/h
Temperature: 46°F , 8°C
Wind Chill: 42°F , 6°C
Dew Point: 37°F , 3°C
Humidity: 71%
2017/10/30 15:00 CXHM 301500Z AUTO 25007G18KT 08/03 RMK AO1 PK WND 29022/1404 SLP982 T00760027 50010
KDSV - Dansville, New York, USA
Distance from station: SE 62mi, 100km
Updated: 11/24/2017 10:54am
Clear
Clear
 Wind from SE
Wind: SE 9 mph , 15 km/h
Temperature: 46°F , 8°C
Wind Chill: 41°F , 5°C
Dew Point: 25°F , -4°C
Humidity: 43%
Barometer: 1012.5 hPa
Clouds: Clear
Visibility: 10 miles , 16 km
2017/11/24 15:54 KDSV 241554Z AUTO 14008KT 10SM CLR 08/M04 A2990 RMK AO2 SLP136 T00781044
 
CYHM - Hamilton Airport, Ontario, Canada
Distance from station: W 63mi, 101km
Updated: 11/24/2017 11:00am
Few Clouds
Few Clouds
 Wind from SW
Wind: SW 23 mph , 37 km/h, Gust: 30 mph , 48 km/h
Temperature: 45°F , 7°C
Wind Chill: 36°F , 2°C
Dew Point: 32°F , 0°C
Humidity: 61%
Barometer: 1009.5 hPa
Clouds: Few Clouds
Visibility: 15 miles , 24 km
Cloud details: Few Clouds 1800 ft
Few Clouds 23000 ft
2017/11/24 16:00 CYHM 241600Z 22020G26KT 15SM FEW018 FEW230 07/M00 A2981 RMK CU1CI1 CU TR CI TR SLP102
CWNC - Cobourg (mars), Ontario, Canada
Distance from station: NNE 63mi, 102km
Updated: 11/24/2017 11:00am

 Wind from SW
Wind: SW 18 mph , 30 km/h
Temperature: 43°F , 6°C
Wind Chill: 35°F , 2°C
Dew Point: 34°F , 1°C
Humidity: 71%
2017/11/24 16:00 CWNC 241600Z AUTO 22016KT 06/01 RMK AO1 PK WND 21020/1531 SLP102 T00590010 58010